createdAt,value
2022-12-13T00:01:30.228Z,52.04
2022-12-13T00:03:59.578Z,51.71
2022-12-13T00:06:28.111Z,51.87
2022-12-13T00:08:56.108Z,51.54
2022-12-13T00:11:24.098Z,52.18
2022-12-13T00:13:53.329Z,51.47
2022-12-13T00:16:23.305Z,51.47
2022-12-13T00:18:52.570Z,52.29
2022-12-13T00:21:22.941Z,51.86
2022-12-13T00:23:50.854Z,52.03
2022-12-13T00:26:23.180Z,51.92
2022-12-13T00:28:54.031Z,51.36
2022-12-13T00:34:11.365Z,51.39
2022-12-13T00:36:39.029Z,51.87
2022-12-13T00:39:06.959Z,51.29
2022-12-13T00:41:36.123Z,51.46
2022-12-13T00:44:06.140Z,51.54
2022-12-13T00:46:33.954Z,51.65
2022-12-13T00:49:02.763Z,52.23
2022-12-13T00:51:32.509Z,52.22
2022-12-13T00:54:01.231Z,51.75
2022-12-13T00:56:31.008Z,51.13
2022-12-13T00:58:59.450Z,51.97
2022-12-13T01:01:31.080Z,51.22
2022-12-13T01:04:01.203Z,51.98
2022-12-13T01:06:30.885Z,52.07
2022-12-13T01:08:59.017Z,51.18
2022-12-13T01:11:27.092Z,51.33
2022-12-13T01:13:54.791Z,51.20
2022-12-13T01:16:22.540Z,51.56
2022-12-13T01:18:51.742Z,51.92
2022-12-13T01:21:22.227Z,52.04
2022-12-13T01:23:50.468Z,51.66
2022-12-13T01:26:20.625Z,51.46
2022-12-13T01:28:49.344Z,51.89
2022-12-13T01:31:20.072Z,51.33
2022-12-13T01:33:48.863Z,51.89
2022-12-13T01:36:20.127Z,51.30
2022-12-13T01:38:58.507Z,51.79
2022-12-13T01:41:28.188Z,51.76
2022-12-13T01:44:01.044Z,51.94
2022-12-13T01:46:29.323Z,51.35
2022-12-13T01:49:02.657Z,51.17
2022-12-13T01:51:36.806Z,51.40
2022-12-13T01:54:07.581Z,51.73
2022-12-13T01:56:39.930Z,50.86
2022-12-13T01:59:10.209Z,51.07
2022-12-13T02:01:38.644Z,50.88
2022-12-13T02:04:07.219Z,51.46
2022-12-13T02:06:38.497Z,50.95
2022-12-13T02:09:08.311Z,51.46
2022-12-13T02:11:37.965Z,51.26
2022-12-13T02:14:06.464Z,51.51
2022-12-13T02:16:45.643Z,51.25
2022-12-13T02:19:48.212Z,51.25
2022-12-13T02:22:41.819Z,51.50
2022-12-13T02:25:31.784Z,51.56
2022-12-13T02:28:30.646Z,52.08
2022-12-13T02:31:07.182Z,52.02
2022-12-13T02:33:43.914Z,51.84
2022-12-13T02:36:17.041Z,51.90
2022-12-13T02:38:53.383Z,51.87
2022-12-13T02:41:26.614Z,51.54
2022-12-13T02:44:01.333Z,51.92
2022-12-13T02:46:33.702Z,51.88
2022-12-13T02:49:01.861Z,51.99
2022-12-13T02:51:30.958Z,51.78
2022-12-13T02:53:58.672Z,51.38
2022-12-13T02:56:26.368Z,51.33
2022-12-13T02:58:57.103Z,51.71
2022-12-13T03:01:43.071Z,52.23
2022-12-13T03:04:26.282Z,52.30
2022-12-13T03:07:05.573Z,51.94
2022-12-13T03:09:45.254Z,51.94
2022-12-13T03:12:42.229Z,51.83
2022-12-13T03:15:17.669Z,52.39
2022-12-13T03:17:52.155Z,51.57
2022-12-13T03:20:24.585Z,51.66
2022-12-13T03:22:52.386Z,51.55
2022-12-13T03:25:30.569Z,52.20
2022-12-13T03:28:01.008Z,51.77
2022-12-13T03:30:29.781Z,51.65
2022-12-13T03:32:58.813Z,52.16
2022-12-13T03:35:34.319Z,52.09
2022-12-13T03:38:12.066Z,52.36
2022-12-13T03:40:40.136Z,52.07
2022-12-13T03:43:08.067Z,52.35
2022-12-13T03:45:35.746Z,51.56
2022-12-13T03:48:05.114Z,51.54
2022-12-13T03:50:32.749Z,51.77
2022-12-13T03:53:00.705Z,52.00
2022-12-13T03:55:29.074Z,52.14
2022-12-13T03:57:56.818Z,51.40
2022-12-13T04:00:24.819Z,51.40
2022-12-13T04:02:52.665Z,51.74
2022-12-13T04:05:21.702Z,51.68
2022-12-13T04:07:49.929Z,52.01
2022-12-13T04:10:26.237Z,51.36
2022-12-13T04:13:12.754Z,52.11
2022-12-13T04:15:48.932Z,51.59
2022-12-13T04:18:17.441Z,51.76
2022-12-13T04:20:47.569Z,51.98
2022-12-13T04:23:15.742Z,52.02
2022-12-13T04:25:44.993Z,52.16
2022-12-13T04:28:12.710Z,51.62
2022-12-13T04:30:53.791Z,52.26
2022-12-13T04:33:22.282Z,51.99
2022-12-13T04:35:52.412Z,52.15
2022-12-13T04:38:20.425Z,51.99
2022-12-13T04:40:48.149Z,51.75
2022-12-13T04:43:15.789Z,51.80
2022-12-13T04:45:43.599Z,51.96
2022-12-13T04:48:11.354Z,51.97
2022-12-13T04:50:39.021Z,52.16
2022-12-13T04:53:08.026Z,52.32
2022-12-13T04:55:35.690Z,52.18
2022-12-13T04:58:03.382Z,51.56
2022-12-13T05:00:31.094Z,52.09
2022-12-13T05:02:58.739Z,52.20
2022-12-13T05:05:26.409Z,51.91
2022-12-13T05:07:54.143Z,52.59
2022-12-13T05:10:36.190Z,51.97
2022-12-13T05:13:06.264Z,52.20
2022-12-13T05:15:34.319Z,52.03
2022-12-13T05:18:10.172Z,52.56
2022-12-13T05:20:39.190Z,52.45
2022-12-13T05:23:07.273Z,51.94
2022-12-13T05:25:37.496Z,52.70
2022-12-13T05:28:08.718Z,52.46
2022-12-13T05:30:53.801Z,52.53
2022-12-13T05:33:21.597Z,52.61
2022-12-13T05:35:49.352Z,52.19
2022-12-13T05:38:17.132Z,52.12
2022-12-13T05:40:46.104Z,52.22
2022-12-13T05:43:22.062Z,52.06
2022-12-13T05:45:50.257Z,52.37
2022-12-13T05:48:24.556Z,52.12
2022-12-13T05:51:10.206Z,52.32
2022-12-13T05:53:39.900Z,52.48
2022-12-13T05:56:10.432Z,52.42
2022-12-13T05:58:39.267Z,52.41
2022-12-13T06:01:08.226Z,52.07
2022-12-13T06:03:36.221Z,52.25
2022-12-13T06:06:04.613Z,51.51
2022-12-13T06:08:32.988Z,51.93
2022-12-13T06:11:11.116Z,50.94
2022-12-13T06:13:43.483Z,51.34
2022-12-13T06:16:22.548Z,50.46
2022-12-13T06:18:57.444Z,50.47
2022-12-13T06:21:32.182Z,50.05
2022-12-13T06:24:11.583Z,49.53
2022-12-13T06:26:39.325Z,49.42
2022-12-13T06:29:08.502Z,48.79
2022-12-13T06:31:36.196Z,49.24
2022-12-13T06:34:14.380Z,48.01
2022-12-13T06:36:43.173Z,47.87
2022-12-13T06:39:16.923Z,48.25
2022-12-13T06:41:44.682Z,47.76
2022-12-13T06:44:13.744Z,47.91
2022-12-13T06:46:41.503Z,48.08
2022-12-13T06:49:09.303Z,47.43
2022-12-13T06:51:36.995Z,47.58
2022-12-13T06:54:05.117Z,47.40
2022-12-13T06:56:33.750Z,48.08
2022-12-13T06:59:02.300Z,48.53
2022-12-13T07:01:37.112Z,49.21
2022-12-13T07:04:29.481Z,49.55
2022-12-13T07:06:53.861Z,49.52
2022-12-13T07:09:21.557Z,50.09
2022-12-13T07:11:52.209Z,50.00
2022-12-13T07:14:20.401Z,49.73
2022-12-13T07:16:49.486Z,50.16
2022-12-13T07:19:23.889Z,50.51
2022-12-13T07:21:52.618Z,50.84
2022-12-13T07:24:20.415Z,51.25
2022-12-13T07:26:48.131Z,51.27
2022-12-13T07:29:22.538Z,51.23
2022-12-13T07:31:52.089Z,51.78
2022-12-13T07:34:19.862Z,51.09
2022-12-13T07:36:47.543Z,51.55
2022-12-13T07:39:15.222Z,51.72
2022-12-13T07:41:42.901Z,52.03
2022-12-13T07:44:10.567Z,51.99
2022-12-13T07:46:38.347Z,51.66
2022-12-13T07:49:07.463Z,51.65
2022-12-13T07:51:35.742Z,52.28
2022-12-13T07:54:06.252Z,51.71
2022-12-13T07:56:34.931Z,52.21
2022-12-13T07:59:02.610Z,52.01
2022-12-13T08:01:34.658Z,52.43
2022-12-13T08:04:03.028Z,52.41
2022-12-13T08:06:36.766Z,51.97
2022-12-13T08:09:05.736Z,51.95
2022-12-13T08:11:33.481Z,52.60
2022-12-13T08:14:01.184Z,52.31
2022-12-13T08:16:29.875Z,52.42
2022-12-13T08:19:02.594Z,52.34
2022-12-13T08:24:24.611Z,52.48
2022-12-13T08:26:52.720Z,52.42
2022-12-13T08:29:23.486Z,52.54
2022-12-13T08:32:01.993Z,52.73
2022-12-13T08:34:29.934Z,52.64
2022-12-13T08:37:01.515Z,52.26
2022-12-13T08:39:34.068Z,52.35
2022-12-13T08:42:17.123Z,52.60
2022-12-13T08:44:47.674Z,52.25
2022-12-13T08:47:24.158Z,52.81
2022-12-13T08:49:54.918Z,52.62
2022-12-13T08:52:24.600Z,52.46
2022-12-13T08:54:52.345Z,51.29
2022-12-13T08:57:20.041Z,51.48
2022-12-13T08:59:47.699Z,51.35
2022-12-13T09:02:16.213Z,50.73
2022-12-13T09:04:44.401Z,50.27
2022-12-13T09:07:12.157Z,50.23
2022-12-13T09:09:41.236Z,50.38
2022-12-13T09:12:10.934Z,50.95
2022-12-13T09:15:01.150Z,51.13
2022-12-13T09:17:36.448Z,51.92
2022-12-13T09:20:09.964Z,51.91
2022-12-13T09:23:01.654Z,52.32
2022-12-13T09:25:36.672Z,52.32
2022-12-13T09:28:06.816Z,52.56
2022-12-13T09:30:34.696Z,52.66
2022-12-13T09:33:28.865Z,52.90
2022-12-13T09:35:50.200Z,52.83
2022-12-13T09:38:17.876Z,52.59
2022-12-13T09:40:50.250Z,52.94
2022-12-13T09:43:32.611Z,52.95
2022-12-13T09:46:02.415Z,53.08
2022-12-13T09:48:30.246Z,53.25
2022-12-13T09:51:16.950Z,53.56
2022-12-13T09:53:51.698Z,53.16
2022-12-13T09:56:23.891Z,53.53
2022-12-13T09:58:53.748Z,53.09
2022-12-13T10:01:22.349Z,53.74
2022-12-13T10:03:55.146Z,53.50
2022-12-13T10:06:25.107Z,53.66
2022-12-13T10:08:57.821Z,53.56
2022-12-13T10:11:31.991Z,53.55
2022-12-13T10:14:05.495Z,53.61
2022-12-13T10:16:43.718Z,53.60
2022-12-13T10:19:29.199Z,53.84
2022-12-13T10:22:02.202Z,54.36
2022-12-13T10:24:36.951Z,53.85
2022-12-13T10:27:14.005Z,54.11
2022-12-13T10:30:05.607Z,53.84
2022-12-13T10:32:37.981Z,53.99
2022-12-13T10:35:21.557Z,54.25
2022-12-13T10:37:49.354Z,54.02
2022-12-13T10:40:32.304Z,53.75
2022-12-13T10:43:14.508Z,54.39
2022-12-13T10:45:43.147Z,54.27
2022-12-13T10:48:22.079Z,54.54
2022-12-13T10:51:02.883Z,54.53
2022-12-13T10:53:35.076Z,54.49
2022-12-13T10:56:04.029Z,54.69
2022-12-13T10:58:40.046Z,54.66
2022-12-13T11:01:21.256Z,54.30
2022-12-13T11:04:02.135Z,54.49
2022-12-13T11:06:43.652Z,54.24
2022-12-13T11:09:22.850Z,54.16
2022-12-13T11:11:57.997Z,52.96
2022-12-13T11:14:32.248Z,52.72
2022-12-13T11:17:10.021Z,52.92
2022-12-13T11:19:41.676Z,52.40
2022-12-13T11:22:11.689Z,52.08
2022-12-13T11:24:43.475Z,51.37
2022-12-13T11:27:48.147Z,51.10
2022-12-13T11:30:38.076Z,49.98
2022-12-13T11:33:22.522Z,50.39
2022-12-13T11:36:04.845Z,49.82
2022-12-13T11:38:39.479Z,49.48
2022-12-13T11:41:13.237Z,50.08
2022-12-13T11:44:03.929Z,49.45
2022-12-13T11:46:41.708Z,49.68
2022-12-13T11:49:17.955Z,49.72
2022-12-13T11:51:51.671Z,49.72
2022-12-13T11:54:25.733Z,49.45
2022-12-13T11:57:00.643Z,49.70
2022-12-13T11:59:40.032Z,49.75
2022-12-13T12:02:17.722Z,49.25
2022-12-13T12:04:51.556Z,49.71
2022-12-13T12:07:33.545Z,49.77
2022-12-13T12:10:15.495Z,48.95
2022-12-13T12:12:48.294Z,49.05
2022-12-13T12:15:26.481Z,48.92
2022-12-13T12:17:56.572Z,48.85
2022-12-13T12:20:38.221Z,49.46
2022-12-13T12:23:18.994Z,49.52
2022-12-13T12:25:53.795Z,48.77
2022-12-13T12:28:34.461Z,49.20
2022-12-13T12:31:11.829Z,48.70
2022-12-13T12:33:50.168Z,48.99
2022-12-13T12:36:31.401Z,49.34
2022-12-13T12:39:35.372Z,48.66
2022-12-13T12:42:19.959Z,48.66
2022-12-13T12:45:03.682Z,48.80
2022-12-13T12:48:26.342Z,49.15
2022-12-13T12:50:37.149Z,49.05
2022-12-13T12:53:29.425Z,48.83
2022-12-13T12:56:09.580Z,48.58
2022-12-13T12:58:46.659Z,48.37
2022-12-13T13:01:19.811Z,48.78
2022-12-13T13:03:49.245Z,49.70
2022-12-13T13:06:22.780Z,49.84
2022-12-13T13:08:56.723Z,50.93
2022-12-13T13:11:26.278Z,50.58
2022-12-13T13:14:08.196Z,51.48
2022-12-13T13:16:38.437Z,51.66
2022-12-13T13:19:07.097Z,50.95
2022-12-13T13:21:48.167Z,50.64
2022-12-13T13:24:18.914Z,50.56
2022-12-13T13:26:48.451Z,50.45
2022-12-13T13:29:43.275Z,49.41
2022-12-13T13:32:32.458Z,49.82
2022-12-13T13:35:50.912Z,49.54
2022-12-13T13:38:50.816Z,49.53
2022-12-13T13:41:57.015Z,48.70
2022-12-13T13:45:06.688Z,48.70
2022-12-13T13:47:43.036Z,48.62
2022-12-13T13:50:49.801Z,48.39
2022-12-13T13:53:50.804Z,48.49
2022-12-13T13:56:44.246Z,48.54
2022-12-13T13:59:51.978Z,48.25
2022-12-13T14:02:45.800Z,48.72
2022-12-13T14:05:49.310Z,48.38
2022-12-13T14:08:43.575Z,48.43
2022-12-13T14:11:50.521Z,48.86
2022-12-13T14:14:54.366Z,48.80
2022-12-13T14:18:11.719Z,49.53
2022-12-13T14:20:58.856Z,50.16
2022-12-13T14:23:39.309Z,50.49
2022-12-13T14:26:19.743Z,49.91
2022-12-13T14:28:52.894Z,50.01
2022-12-13T14:31:25.032Z,49.49
2022-12-13T14:33:54.310Z,49.00
2022-12-13T14:36:28.451Z,48.71
2022-12-13T14:39:03.681Z,48.60
2022-12-13T14:41:32.096Z,48.79
2022-12-13T14:46:57.035Z,50.13
2022-12-13T14:49:27.420Z,50.88
2022-12-13T14:52:01.344Z,50.98
2022-12-13T14:54:37.764Z,50.64
2022-12-13T14:57:05.762Z,51.42
2022-12-13T14:59:34.297Z,51.40
2022-12-13T15:02:05.250Z,51.60
2022-12-13T15:04:35.734Z,50.74
2022-12-13T15:07:08.398Z,50.38
2022-12-13T15:09:38.171Z,50.09
2022-12-13T15:12:14.775Z,50.11
2022-12-13T15:14:59.647Z,49.63
2022-12-13T15:17:34.686Z,49.07
2022-12-13T15:20:03.665Z,48.85
2022-12-13T15:22:31.404Z,48.64
2022-12-13T15:24:59.599Z,48.13
2022-12-13T15:27:27.932Z,48.40
2022-12-13T15:29:56.161Z,48.80
2022-12-13T15:32:24.173Z,49.16
2022-12-13T15:34:53.289Z,49.64
2022-12-13T15:37:30.441Z,49.81
2022-12-13T15:40:01.723Z,50.03
2022-12-13T15:42:33.241Z,50.28
2022-12-13T15:45:03.758Z,51.06
2022-12-13T15:47:31.601Z,50.72
2022-12-13T15:50:02.803Z,50.87
2022-12-13T15:52:36.559Z,50.63
2022-12-13T15:55:28.772Z,50.46
2022-12-13T15:57:58.707Z,49.90
2022-12-13T16:00:30.353Z,49.58
2022-12-13T16:03:09.104Z,49.17
2022-12-13T16:05:41.374Z,49.41
2022-12-13T16:08:24.994Z,49.78
2022-12-13T16:10:53.942Z,50.02
2022-12-13T16:13:26.838Z,50.20
2022-12-13T16:15:59.870Z,50.10
2022-12-13T16:18:44.033Z,51.10
2022-12-13T16:21:14.342Z,51.42
2022-12-13T16:23:48.775Z,51.07
2022-12-13T16:26:22.910Z,51.51
2022-12-13T16:28:50.649Z,51.64
2022-12-13T16:31:21.220Z,51.88
2022-12-13T16:33:49.048Z,51.14
2022-12-13T16:36:18.498Z,51.21
2022-12-13T16:38:46.177Z,51.78
2022-12-13T16:41:14.684Z,51.77
2022-12-13T16:43:51.836Z,52.32
2022-12-13T16:47:12.292Z,51.59
2022-12-13T16:49:19.441Z,51.85
2022-12-13T16:51:49.211Z,51.85
2022-12-13T16:54:18.040Z,52.10
2022-12-13T16:56:45.762Z,52.52
2022-12-13T16:59:15.249Z,52.23
2022-12-13T17:01:43.539Z,52.07
2022-12-13T17:04:18.036Z,52.07
2022-12-13T17:06:49.188Z,52.08
2022-12-13T17:09:17.297Z,51.93
2022-12-13T17:11:45.107Z,52.63
2022-12-13T17:14:12.815Z,52.42
2022-12-13T17:16:40.562Z,52.81
2022-12-13T17:19:08.304Z,51.60
2022-12-13T17:21:35.993Z,52.27
2022-12-13T17:24:05.723Z,52.14
2022-12-13T17:26:33.438Z,52.10
2022-12-13T17:29:01.348Z,52.18
2022-12-13T17:31:34.964Z,51.48
2022-12-13T17:34:03.702Z,52.48
2022-12-13T17:36:32.096Z,51.75
2022-12-13T17:38:59.865Z,51.71
2022-12-13T17:41:28.928Z,52.40
2022-12-13T17:43:59.543Z,52.33
2022-12-13T17:46:27.313Z,51.45
2022-12-13T17:48:55.027Z,51.30
2022-12-13T17:51:22.769Z,51.83
2022-12-13T17:53:50.433Z,51.23
2022-12-13T17:56:19.739Z,51.60
2022-12-13T17:58:49.136Z,51.59
2022-12-13T18:01:19.569Z,51.70
2022-12-13T18:03:48.834Z,51.20
2022-12-13T18:06:17.041Z,51.57
2022-12-13T18:08:45.893Z,51.49
2022-12-13T18:14:04.478Z,51.80
2022-12-13T18:16:36.834Z,51.50
2022-12-13T18:19:07.366Z,51.16
2022-12-13T18:21:36.848Z,51.02
2022-12-13T18:24:05.745Z,51.41
2022-12-13T18:26:34.162Z,51.76
2022-12-13T18:29:03.772Z,51.11
2022-12-13T18:31:31.575Z,51.03
2022-12-13T18:33:59.436Z,50.30
2022-12-13T18:36:27.662Z,50.62
2022-12-13T18:38:55.602Z,49.53
2022-12-13T18:41:24.911Z,49.76
2022-12-13T18:43:59.167Z,49.53
2022-12-13T18:46:30.703Z,48.93
2022-12-13T18:48:59.150Z,49.38
2022-12-13T18:51:27.186Z,49.54
2022-12-13T18:53:56.098Z,50.00
2022-12-13T18:56:24.322Z,49.78
2022-12-13T18:58:52.426Z,50.48
2022-12-13T19:01:21.130Z,50.18
2022-12-13T19:03:50.621Z,49.84
2022-12-13T19:06:20.420Z,50.44
2022-12-13T19:08:49.469Z,50.05
2022-12-13T19:11:17.405Z,50.95
2022-12-13T19:13:45.265Z,50.99
2022-12-13T19:16:14.993Z,50.46
2022-12-13T19:18:43.398Z,51.32
2022-12-13T19:21:15.591Z,50.68
2022-12-13T19:23:43.337Z,51.40
2022-12-13T19:26:14.002Z,50.50
2022-12-13T19:28:42.962Z,50.56
2022-12-13T19:31:12.467Z,50.90
2022-12-13T19:33:40.516Z,51.19
2022-12-13T19:36:09.390Z,51.64
2022-12-13T19:38:38.571Z,51.32
2022-12-13T19:41:10.785Z,51.30
2022-12-13T19:43:38.557Z,50.95
2022-12-13T19:46:06.827Z,51.01
2022-12-13T19:48:37.482Z,51.55
2022-12-13T19:51:06.937Z,51.01
2022-12-13T19:53:35.638Z,51.87
2022-12-13T19:56:09.676Z,51.90
2022-12-13T19:58:37.739Z,51.54
2022-12-13T20:01:07.261Z,51.03
2022-12-13T20:03:35.656Z,51.40
2022-12-13T20:06:04.915Z,51.08
2022-12-13T20:08:32.925Z,50.86
2022-12-13T20:11:02.137Z,51.81
2022-12-13T20:13:31.225Z,51.97
2022-12-13T20:15:59.194Z,51.64
2022-12-13T20:18:27.377Z,51.76
2022-12-13T20:21:12.127Z,51.00
2022-12-13T20:23:40.846Z,51.03
2022-12-13T20:26:12.147Z,51.24
2022-12-13T20:28:41.988Z,51.60
2022-12-13T20:31:12.135Z,51.33
2022-12-13T20:33:41.777Z,51.59
2022-12-13T20:36:27.751Z,51.19
2022-12-13T20:38:57.017Z,51.76
2022-12-13T20:41:26.611Z,51.57
2022-12-13T20:43:57.325Z,52.00
2022-12-13T20:46:25.902Z,51.26
2022-12-13T20:48:55.252Z,51.52
2022-12-13T20:51:25.420Z,51.54
2022-12-13T20:53:53.908Z,51.55
2022-12-13T20:56:23.963Z,51.93
2022-12-13T20:58:52.079Z,51.87
2022-12-13T21:01:22.924Z,51.95
2022-12-13T21:03:50.767Z,51.51
2022-12-13T21:06:18.445Z,51.71
2022-12-13T21:08:55.271Z,50.97
2022-12-13T21:11:25.767Z,51.54
2022-12-13T21:13:55.647Z,51.09
2022-12-13T21:16:26.290Z,50.94
2022-12-13T21:18:55.247Z,51.40
2022-12-13T21:21:23.558Z,51.33
2022-12-13T21:23:51.860Z,51.19
2022-12-13T21:26:19.811Z,51.24
2022-12-13T21:28:47.563Z,51.01
2022-12-13T21:31:15.473Z,50.91
2022-12-13T21:33:44.557Z,51.40
2022-12-13T21:36:14.388Z,51.16
2022-12-13T21:38:42.999Z,51.78
2022-12-13T21:41:12.561Z,51.27
2022-12-13T21:43:41.659Z,51.49
2022-12-13T21:46:11.035Z,51.10
2022-12-13T21:48:40.864Z,51.48
2022-12-13T21:51:12.950Z,51.22
2022-12-13T21:53:40.918Z,51.34
2022-12-13T21:56:27.587Z,50.93
2022-12-13T21:59:12.973Z,51.64
2022-12-13T22:02:03.137Z,51.34
2022-12-13T22:04:31.547Z,51.70
2022-12-13T22:07:01.450Z,50.75
2022-12-13T22:09:29.422Z,51.17
2022-12-13T22:11:57.609Z,50.88
2022-12-13T22:14:25.322Z,51.76
2022-12-13T22:16:53.245Z,51.06
2022-12-13T22:19:20.989Z,50.65
2022-12-13T22:21:48.728Z,50.44
2022-12-13T22:24:18.731Z,51.23
2022-12-13T22:26:46.434Z,51.28
2022-12-13T22:29:14.278Z,50.88
2022-12-13T22:31:42.178Z,51.39
2022-12-13T22:34:10.209Z,51.05
2022-12-13T22:36:37.943Z,51.19
2022-12-13T22:39:06.877Z,50.92
2022-12-13T22:41:35.982Z,50.73
2022-12-13T22:44:03.704Z,51.25
2022-12-13T22:46:31.425Z,50.54
2022-12-13T22:48:59.096Z,51.32
2022-12-13T22:51:26.809Z,50.69
2022-12-13T22:53:54.518Z,50.50
2022-12-13T22:56:24.132Z,50.82
2022-12-13T22:58:56.058Z,50.89
2022-12-13T23:01:26.860Z,50.79
2022-12-13T23:03:54.847Z,50.01
2022-12-13T23:06:24.734Z,51.27
2022-12-13T23:08:54.837Z,50.88
2022-12-13T23:11:40.926Z,50.89
2022-12-13T23:14:11.778Z,50.21
2022-12-13T23:16:39.641Z,50.79
2022-12-13T23:19:40.470Z,50.29
2022-12-13T23:21:57.763Z,51.06
2022-12-13T23:24:25.732Z,50.35
2022-12-13T23:26:53.449Z,50.54
2022-12-13T23:29:22.497Z,50.80
2022-12-13T23:31:50.279Z,50.31
2022-12-13T23:34:17.960Z,50.62
2022-12-13T23:36:45.650Z,51.03
2022-12-13T23:39:13.337Z,51.10
2022-12-13T23:41:41.004Z,51.06
2022-12-13T23:44:08.768Z,51.04
2022-12-13T23:46:38.053Z,50.40
2022-12-13T23:49:07.085Z,50.19
2022-12-13T23:51:37.790Z,51.15
2022-12-13T23:54:06.033Z,50.95
2022-12-13T23:56:33.730Z,50.49
2022-12-13T23:59:01.435Z,50.78
